You are not logged in, Click here to log in
內排國際機場 HAN / VVNB 越南首都河內
ICAO: VVNB Country: 越南首都河內
Latitude: 21.2187 Longitude: 105.804
Total Arrivals: 29 Total Departures: 29
Latest Arrival: KE679 (RKSI-VVNB)Mori. Yang Latest Departure: NH858 (VVNB-RJTT)Mori. Yang
Scenery:
METAR : VVNB 211400Z VRB02KT 2700 BR SCT009 SCT017 20/18 Q1018 NOSIG

內排國際機場 HAN